Time;durP1;ratioP1;P1;durP2;ratioP2;P2;SDS_P1;SDS_P2;PMS_P1;PMS_P2;Temp;Humidity;BMP_temperature;BMP_pressure;BME280_temperature;BME280_humidity;BME280_pressure;Samples;Min_cycle;Max_cycle;Signal;HPM_P1;HPM_P2
2022/10/22 00:03:53;;;;;;;7.00;4.20;;;;;;;9.72;76.95;98488.20;214516;1310;22479;-73
2022/10/22 00:08:55;;;;;;;11.30;4.20;;;;;;;9.71;76.81;98485.16;214351;1310;22523;-73
2022/10/22 00:13:57;;;;;;;7.20;4.30;;;;;;;9.70;76.86;98480.31;214601;1310;22544;-73
2022/10/22 00:18:59;;;;;;;8.80;4.70;;;;;;;9.69;76.99;98481.67;214396;1310;22474;-75
2022/10/22 00:24:01;;;;;;;10.50;5.10;;;;;;;9.65;77.16;98486.17;214517;1310;24301;-73
2022/10/22 00:29:02;;;;;;;7.10;4.30;;;;;;;9.62;77.32;98487.12;214508;1310;22605;-73
2022/10/22 00:34:04;;;;;;;12.80;4.70;;;;;;;9.58;77.41;98475.09;214521;1310;25396;-72
2022/10/22 00:39:06;;;;;;;5.60;4.30;;;;;;;9.56;77.70;98470.77;214560;1304;22602;-74
2022/10/22 00:44:46;;;;;;;9.20;4.60;;;;;;;9.56;77.70;98466.72;214566;1310;23757;-72
2022/10/22 00:49:48;;;;;;;;;;;;;;;9.55;77.97;98460.79;214658;1310;22583;-73
2022/10/22 00:54:51;;;;;;;8.30;4.80;;;;;;;9.52;78.12;98462.01;214587;1309;22479;-73
2022/10/22 00:59:54;;;;;;;7.40;4.70;;;;;;;9.49;78.20;98458.84;214741;1310;25391;-73
2022/10/22 01:04:56;;;;;;;8.70;5.20;;;;;;;9.44;78.07;98456.29;214492;1310;22459;-72
2022/10/22 01:10:17;;;;;;;6.90;5.20;;;;;;;9.38;78.34;98466.31;214503;1310;22942;-72
2022/10/22 01:15:33;;;;;;;9.20;4.90;;;;;;;9.30;78.44;98467.75;214510;1310;25436;-72
2022/10/22 01:21:03;;;;;;;6.50;4.50;;;;;;;9.20;78.56;98465.68;214633;1310;23186;-74
2022/10/22 01:26:24;;;;;;;9.60;4.80;;;;;;;9.09;78.78;98461.27;214745;1310;24289;-73
2022/10/22 01:31:31;;;;;;;10.60;5.80;;;;;;;9.01;79.32;98449.67;214633;1310;24293;-75
2022/10/22 01:36:36;;;;;;;9.30;5.20;;;;;;;8.97;79.60;98454.38;214593;1309;24318;-73
2022/10/22 01:41:39;;;;;;;7.00;5.00;;;;;;;8.96;79.87;98451.71;214438;1303;22629;-73
2022/10/22 01:46:41;;;;;;;8.10;5.10;;;;;;;8.98;80.01;98442.34;214558;1310;23356;-73
2022/10/22 01:52:11;;;;;;;7.40;4.50;;;;;;;9.00;80.03;98426.98;214500;1310;22472;-73
2022/10/22 01:57:27;;;;;;;7.80;4.80;;;;;;;9.03;80.14;98422.88;214690;1310;24253;-73
2022/10/22 02:02:33;;;;;;;8.10;4.90;;;;;;;9.05;80.01;98425.46;214698;1310;22491;-73
2022/10/22 02:07:42;;;;;;;9.30;4.70;;;;;;;9.08;79.92;98427.52;214490;1310;111115;-73
2022/10/22 02:12:49;;;;;;;9.90;5.30;;;;;;;9.09;79.92;98428.58;214412;1310;22507;-73
2022/10/22 02:17:54;;;;;;;7.40;4.90;;;;;;;9.07;79.82;98417.15;214544;1310;22487;-73
2022/10/22 02:22:57;;;;;;;8.00;4.50;;;;;;;9.05;80.03;98424.23;214447;1310;22975;-72
2022/10/22 02:28:11;;;;;;;8.30;4.80;;;;;;;9.01;79.93;98416.38;214565;1294;23315;-72
2022/10/22 02:33:21;;;;;;;9.70;5.20;;;;;;;8.99;80.04;98417.05;214538;1310;25291;-73
2022/10/22 02:38:25;;;;;;;8.30;4.60;;;;;;;8.98;80.17;98433.47;214676;1297;22599;-73
2022/10/22 02:43:28;;;;;;;9.20;5.10;;;;;;;8.96;80.17;98443.90;214498;1310;25437;-73
2022/10/22 02:48:30;;;;;;;12.50;5.40;;;;;;;8.96;80.28;98448.48;214367;1310;23790;-73
2022/10/22 02:53:32;;;;;;;7.30;4.60;;;;;;;8.97;80.45;98454.27;214504;1310;22473;-73
2022/10/22 02:58:34;;;;;;;7.10;4.80;;;;;;;9.01;80.41;98461.53;214454;1310;24083;-74
2022/10/22 03:03:35;;;;;;;7.50;5.20;;;;;;;9.08;80.31;98466.00;214489;1310;22584;-73
2022/10/22 03:08:39;;;;;;;6.50;4.70;;;;;;;9.15;80.16;98469.48;214521;1310;22545;-72
2022/10/22 03:13:41;;;;;;;6.30;4.20;;;;;;;9.21;79.93;98463.85;214675;1310;22640;-73
2022/10/22 03:18:43;;;;;;;9.80;5.10;;;;;;;9.25;79.84;98451.19;214527;1310;25551;-73
2022/10/22 03:23:46;;;;;;;9.30;5.50;;;;;;;9.25;79.74;98439.10;214623;1310;24329;-73
2022/10/22 03:28:48;;;;;;;8.60;5.00;;;;;;;9.23;79.77;98427.07;214481;1310;22501;-73
2022/10/22 03:33:50;;;;;;;9.50;5.60;;;;;;;9.21;79.72;98428.64;214453;1304;22967;-73
2022/10/22 03:38:53;;;;;;;7.60;5.10;;;;;;;9.17;79.72;98440.29;214425;1310;22472;-73
2022/10/22 03:43:56;;;;;;;9.50;5.50;;;;;;;9.14;79.84;98438.95;214535;1310;25819;-73
2022/10/22 03:48:58;;;;;;;8.10;5.00;;;;;;;9.11;80.09;98438.27;214600;1310;22527;-72
2022/10/22 03:53:59;;;;;;;12.10;5.50;;;;;;;9.11;80.08;98449.83;214484;1310;25329;-73
2022/10/22 03:59:02;;;;;;;8.10;4.80;;;;;;;9.12;80.03;98457.66;214527;1310;22475;-73
2022/10/22 04:04:04;;;;;;;7.90;4.60;;;;;;;9.10;80.07;98450.63;214469;1310;22519;-73
2022/10/22 04:09:06;;;;;;;9.20;5.30;;;;;;;9.09;80.15;98461.64;214474;1310;23740;-73
2022/10/22 04:14:07;;;;;;;11.20;5.90;;;;;;;9.07;80.20;98456.43;214646;1310;22615;-75
2022/10/22 04:19:09;;;;;;;7.50;5.20;;;;;;;9.02;80.19;98442.76;214442;1310;22751;-73
2022/10/22 04:24:11;;;;;;;7.50;5.20;;;;;;;8.96;80.38;98439.90;214462;1310;22469;-73
2022/10/22 04:29:13;;;;;;;7.40;4.90;;;;;;;8.92;80.64;98428.09;214370;1310;25331;-73
2022/10/22 04:34:17;;;;;;;8.90;5.20;;;;;;;8.89;80.59;98415.73;214547;1310;25374;-72
2022/10/22 04:39:18;;;;;;;7.80;4.70;;;;;;;8.89;80.89;98408.14;214571;1310;22477;-73
2022/10/22 04:44:21;;;;;;;10.60;5.80;;;;;;;8.88;80.84;98400.41;214537;1310;22618;-73
2022/10/22 04:49:23;;;;;;;9.90;5.90;;;;;;;8.83;80.83;98390.73;214567;1310;25343;-73
2022/10/22 04:54:25;;;;;;;10.00;5.90;;;;;;;8.75;81.02;98403.71;214398;1309;22530;-73
2022/10/22 04:59:32;;;;;;;8.80;4.60;;;;;;;8.70;81.35;98399.77;214433;1310;22522;-73
2022/10/22 05:04:34;;;;;;;9.50;6.00;;;;;;;8.69;81.46;98405.92;214534;1304;24280;-73
2022/10/22 05:09:36;;;;;;;8.20;5.20;;;;;;;8.68;81.61;98418.95;214398;1310;25344;-73
2022/10/22 05:14:38;;;;;;;9.20;5.80;;;;;;;8.71;81.76;98427.52;214394;1310;22478;-72
2022/10/22 05:19:45;;;;;;;7.30;5.20;;;;;;;8.74;81.85;98433.05;214547;1310;22483;-73
2022/10/22 05:24:47;;;;;;;9.80;5.30;;;;;;;8.75;81.83;98435.16;214338;1309;22507;-73
2022/10/22 05:29:49;;;;;;;6.10;4.90;;;;;;;8.76;81.85;98425.49;214474;1310;22499;-73
2022/10/22 05:34:51;;;;;;;10.30;5.80;;;;;;;8.74;81.89;98413.34;214455;1310;25282;-72
2022/10/22 05:39:53;;;;;;;9.80;5.80;;;;;;;8.74;82.04;98423.54;214348;1310;24402;-73
2022/10/22 05:45:13;;;;;;;10.30;6.50;;;;;;;8.78;81.97;98421.25;214478;1310;24329;-73
2022/10/22 05:50:15;;;;;;;10.00;5.60;;;;;;;8.79;81.82;98427.11;214566;1310;26610;-73
2022/10/22 05:55:16;;;;;;;8.60;5.60;;;;;;;8.79;81.95;98416.59;214476;1310;22481;-73
2022/10/22 06:00:18;;;;;;;9.90;5.20;;;;;;;8.83;82.00;98432.46;214431;1308;23338;-73
2022/10/22 06:05:20;;;;;;;12.70;6.80;;;;;;;8.88;82.07;98454.63;214430;1310;25273;-73
2022/10/22 06:10:22;;;;;;;9.20;5.60;;;;;;;8.98;82.19;98469.58;214541;1303;22603;-73
2022/10/22 06:15:24;;;;;;;6.70;4.60;;;;;;;9.13;81.99;98465.66;214587;1310;22497;-73
2022/10/22 06:20:26;;;;;;;7.10;4.70;;;;;;;9.31;81.88;98469.25;214579;1310;22533;-73
2022/10/22 06:25:28;;;;;;;11.80;6.10;;;;;;;9.48;81.59;98482.86;214423;1310;22955;-73
2022/10/22 06:30:30;;;;;;;10.10;5.00;;;;;;;9.63;81.39;98483.64;214518;1298;22509;-73
2022/10/22 06:35:32;;;;;;;9.40;5.30;;;;;;;9.75;81.10;98474.14;214607;1310;22783;-74
2022/10/22 06:40:34;;;;;;;11.10;5.20;;;;;;;9.88;80.82;98479.41;214466;1310;22511;-73
2022/10/22 06:45:35;;;;;;;7.80;5.30;;;;;;;10.02;80.81;98483.11;214766;1277;22482;-72
2022/10/22 06:50:37;;;;;;;9.60;5.30;;;;;;;10.18;80.30;98486.77;214977;1280;24315;-73
2022/10/22 06:55:39;;;;;;;12.50;6.20;;;;;;;10.34;80.22;98492.41;215182;1285;22737;-72
2022/10/22 07:00:41;;;;;;;10.30;5.90;;;;;;;10.54;79.88;98497.89;214997;1281;22483;-72
2022/10/22 07:05:42;;;;;;;9.80;6.00;;;;;;;10.72;79.27;98502.16;215180;1294;22608;-72
2022/10/22 07:10:44;;;;;;;10.10;5.60;;;;;;;10.88;78.62;98501.73;215346;1277;22610;-72
2022/10/22 07:15:53;;;;;;;9.50;5.10;;;;;;;10.98;78.71;98507.75;214949;1294;24321;-73
2022/10/22 07:20:56;;;;;;;11.90;6.10;;;;;;;11.11;78.49;98513.35;215155;1278;22612;-72
2022/10/22 07:25:58;;;;;;;8.60;5.60;;;;;;;11.22;78.09;98498.93;215113;1284;24361;-73
2022/10/22 07:31:00;;;;;;;9.10;6.10;;;;;;;11.29;77.74;98502.86;214985;1288;22487;-73
2022/10/22 07:36:04;;;;;;;12.20;6.10;;;;;;;11.31;77.56;98496.70;214980;1285;25417;-73
2022/10/22 07:41:06;;;;;;;9.90;6.20;;;;;;;11.37;77.40;98494.17;215288;1277;22531;-73
2022/10/22 07:46:08;;;;;;;10.80;5.80;;;;;;;11.46;77.58;98506.26;214971;1284;22522;-73
2022/10/22 07:51:10;;;;;;;11.00;6.50;;;;;;;11.55;77.02;98514.52;214828;1278;22503;-72
2022/10/22 07:56:12;;;;;;;9.10;5.70;;;;;;;11.66;77.15;98498.92;215175;1277;22586;-73
2022/10/22 08:01:14;;;;;;;8.90;5.70;;;;;;;11.78;77.00;98485.23;215083;1285;24238;-73
2022/10/22 08:06:16;;;;;;;12.00;7.20;;;;;;;11.93;76.84;98486.88;214921;1284;22502;-74
2022/10/22 08:11:18;;;;;;;13.40;6.90;;;;;;;12.04;76.40;98510.38;215029;1277;22477;-75
2022/10/22 08:16:20;;;;;;;12.60;7.10;;;;;;;12.15;76.75;98514.69;215026;1278;24305;-72
2022/10/22 08:21:22;;;;;;;15.00;6.90;;;;;;;12.27;76.71;98508.63;214943;1287;22479;-73
2022/10/22 08:26:24;;;;;;;11.80;6.70;;;;;;;12.34;76.91;98505.44;214970;1284;23409;-75
2022/10/22 08:31:25;;;;;;;10.20;5.90;;;;;;;12.41;76.72;98509.30;214938;1285;22620;-73
2022/10/22 08:36:29;;;;;;;11.30;6.40;;;;;;;12.45;76.25;98526.59;214974;1307;24475;-73
2022/10/22 08:41:39;;;;;;;10.40;6.30;;;;;;;12.50;76.34;98543.66;215131;1277;26392;-73
2022/10/22 08:47:12;;;;;;;10.10;6.30;;;;;;;12.59;76.50;98533.30;214845;1278;22515;-73
2022/10/22 08:52:17;;;;;;;10.80;6.10;;;;;;;12.68;76.26;98534.91;215107;1283;22510;-73
2022/10/22 08:57:22;;;;;;;10.80;6.20;;;;;;;12.66;75.81;98525.87;215013;1277;22683;-75
2022/10/22 09:02:27;;;;;;;12.00;6.00;;;;;;;12.66;75.99;98517.11;215188;1285;22514;-72
2022/10/22 09:07:28;;;;;;;7.60;5.50;;;;;;;12.72;75.89;98514.42;215140;1283;25525;-72
2022/10/22 09:12:30;;;;;;;13.20;6.90;;;;;;;12.77;76.04;98521.94;215060;1278;22969;-74
2022/10/22 09:17:49;;;;;;;11.10;6.80;;;;;;;12.83;76.04;98534.91;215006;1284;22533;-74
2022/10/22 09:22:56;;;;;;;12.90;7.00;;;;;;;12.83;75.95;98548.77;214800;1281;22465;-74
2022/10/22 09:27:58;;;;;;;11.70;7.00;;;;;;;12.81;76.00;98551.09;215134;1277;23222;-74
2022/10/22 09:33:06;;;;;;;13.30;7.40;;;;;;;12.80;76.00;98550.14;214902;1285;22677;-74
2022/10/22 09:38:07;;;;;;;9.80;5.60;;;;;;;12.84;76.23;98548.85;215032;1284;22563;-74
2022/10/22 09:43:13;;;;;;;11.90;7.40;;;;;;;12.92;76.34;98555.63;214983;1309;25413;-73
2022/10/22 09:48:40;;;;;;;10.80;6.60;;;;;;;12.98;75.98;98550.46;215321;1285;25428;-73
2022/10/22 09:53:46;;;;;;;15.70;10.90;;;;;;;13.00;75.78;98552.56;215301;1309;22599;-74
2022/10/22 09:58:50;;;;;;;11.60;7.00;;;;;;;13.06;75.99;98556.45;215132;1285;24254;-73
2022/10/22 10:03:52;;;;;;;14.40;8.00;;;;;;;13.11;75.63;98550.35;214919;1295;22464;-73
2022/10/22 10:08:54;;;;;;;12.30;7.30;;;;;;;13.11;75.69;98550.71;215174;1284;24272;-73
2022/10/22 10:14:20;;;;;;;15.90;7.70;;;;;;;13.14;75.83;98536.92;215124;1309;23936;-72
2022/10/22 10:19:43;;;;;;;13.40;7.50;;;;;;;13.18;75.85;98535.84;215379;1284;23758;-73
2022/10/22 10:24:55;;;;;;;11.90;6.80;;;;;;;13.25;75.78;98537.13;215243;1291;22485;-74
2022/10/22 10:30:20;;;;;;;9.80;7.00;;;;;;;13.32;76.03;98527.66;215258;1301;22510;-74
2022/10/22 10:35:53;;;;;;;11.00;7.40;;;;;;;13.36;75.92;98521.02;215301;1285;22957;-73
2022/10/22 10:41:06;;;;;;;10.70;7.50;;;;;;;13.36;76.10;98533.78;215080;1284;22473;-74
2022/10/22 10:46:27;;;;;;;10.40;7.00;;;;;;;13.33;76.24;98527.38;215295;1285;22529;-73
2022/10/22 10:51:53;;;;;;;20.10;8.70;;;;;;;13.27;76.40;98526.31;215196;1278;22571;-73
2022/10/22 10:57:08;;;;;;;12.80;8.30;;;;;;;13.24;77.02;98522.25;215101;1277;25251;-74
2022/10/22 11:02:26;;;;;;;12.80;8.60;;;;;;;13.21;77.46;98524.80;214996;1283;22516;-74
2022/10/22 11:07:35;;;;;;;13.40;8.00;;;;;;;13.16;77.74;98518.43;214716;1301;22465;-74
2022/10/22 11:12:47;;;;;;;13.60;7.70;;;;;;;13.14;78.08;98506.36;214573;1309;24631;-74
2022/10/22 11:17:51;;;;;;;17.40;8.80;;;;;;;13.14;78.56;98502.05;214791;1309;22479;-74
2022/10/22 11:23:10;;;;;;;16.70;10.10;;;;;;;13.16;78.70;98492.86;214582;1295;22496;-74
2022/10/22 11:28:39;;;;;;;13.40;8.40;;;;;;;13.17;78.69;98494.92;214599;1309;24337;-74
2022/10/22 11:33:50;;;;;;;12.50;8.00;;;;;;;13.25;78.77;98493.70;214698;1309;22481;-74
2022/10/22 11:38:57;;;;;;;20.00;10.30;;;;;;;13.26;78.62;98511.52;214451;1309;24068;-73
2022/10/22 11:44:21;;;;;;;14.00;8.90;;;;;;;13.15;78.66;98506.55;214634;1310;24393;-74
2022/10/22 11:49:40;;;;;;;16.20;9.50;;;;;;;13.07;79.16;98503.41;214683;1309;22635;-73
2022/10/22 11:54:43;;;;;;;14.80;9.60;;;;;;;13.02;79.52;98504.65;214609;1309;25279;-74
2022/10/22 11:59:45;;;;;;;13.10;9.30;;;;;;;12.95;79.81;98501.36;214543;1309;25297;-74
2022/10/22 12:04:47;;;;;;;14.80;9.40;;;;;;;12.88;80.06;98502.34;214668;1309;26084;-74
2022/10/22 12:09:51;;;;;;;16.60;9.60;;;;;;;12.70;80.45;98508.52;214517;1310;22514;-75
2022/10/22 12:14:58;;;;;;;14.90;8.60;;;;;;;12.50;80.74;98502.89;214713;1297;22501;-74
2022/10/22 12:20:10;;;;;;;13.20;8.50;;;;;;;12.35;80.94;98499.89;214753;1310;22496;-75
2022/10/22 12:25:21;;;;;;;13.60;8.80;;;;;;;12.22;81.47;98500.55;214532;1311;22478;-73
2022/10/22 12:30:26;;;;;;;16.80;9.00;;;;;;;12.16;81.73;98499.48;214620;1309;22542;-74
2022/10/22 12:35:31;;;;;;;15.30;9.90;;;;;;;12.14;81.97;98496.09;214490;1310;22467;-74
2022/10/22 12:40:34;;;;;;;14.20;8.90;;;;;;;12.13;82.07;98487.23;214513;1310;22646;-74
2022/10/22 12:45:38;;;;;;;18.00;9.90;;;;;;;12.16;82.19;98482.13;214792;1309;22458;-74
2022/10/22 12:50:42;;;;;;;15.20;9.60;;;;;;;12.18;82.11;98479.56;214620;1309;22517;-74
2022/10/22 12:55:48;;;;;;;14.90;9.30;;;;;;;12.18;81.93;98475.11;214680;1310;24203;-74
2022/10/22 13:00:57;;;;;;;16.10;9.70;;;;;;;12.15;81.90;98469.74;214658;1309;22960;-74
2022/10/22 13:06:28;;;;;;;15.30;9.60;;;;;;;12.09;81.83;98469.23;214668;1310;22438;-75
2022/10/22 13:11:47;;;;;;;15.30;9.60;;;;;;;12.02;81.93;98476.92;214546;1309;22487;-74
2022/10/22 13:17:07;;;;;;;13.80;8.70;;;;;;;11.96;82.07;98488.62;214611;1309;24362;-75
2022/10/22 13:22:27;;;;;;;15.50;8.70;;;;;;;11.87;82.63;98489.82;214730;1313;22474;-74
2022/10/22 13:27:30;;;;;;;;;;;;;;;11.83;83.16;98486.16;214712;1301;22545;-75
2022/10/22 13:32:32;;;;;;;15.20;9.70;;;;;;;11.80;83.83;98480.30;214698;1309;25522;-73
2022/10/22 13:37:36;;;;;;;20.60;11.10;;;;;;;11.75;84.32;98479.08;214793;1310;22579;-73
2022/10/22 13:42:38;;;;;;;13.40;8.60;;;;;;;11.69;84.82;98485.18;214849;1309;22556;-74
2022/10/22 13:47:45;;;;;;;14.80;9.30;;;;;;;11.62;85.16;98479.38;214744;1302;22504;-75
2022/10/22 13:52:52;;;;;;;18.20;11.00;;;;;;;11.53;85.59;98485.99;214582;1309;25328;-74
2022/10/22 13:57:56;;;;;;;15.60;9.90;;;;;;;11.43;86.15;98496.82;214634;1309;24253;-73
2022/10/22 14:02:59;;;;;;;16.30;10.50;;;;;;;11.37;86.56;98499.80;214837;1309;23701;-73
2022/10/22 14:08:01;;;;;;;16.10;9.30;;;;;;;11.31;86.96;98506.89;214579;1309;161328;-74
2022/10/22 14:13:06;;;;;;;17.10;10.90;;;;;;;11.26;87.26;98507.59;214733;1309;25559;-74
2022/10/22 14:18:14;;;;;;;18.90;12.10;;;;;;;11.19;87.55;98497.58;214904;1309;22624;-75
2022/10/22 14:23:19;;;;;;;17.50;11.40;;;;;;;11.15;87.86;98501.16;214710;1309;25382;-73
2022/10/22 14:28:21;;;;;;;17.10;11.30;;;;;;;11.07;88.30;98502.59;214553;1309;22481;-74
2022/10/22 14:33:26;;;;;;;20.40;12.80;;;;;;;11.01;88.79;98508.40;214690;1309;22480;-74
2022/10/22 14:38:32;;;;;;;19.90;12.60;;;;;;;10.95;88.83;98501.48;214597;1309;22617;-74
2022/10/22 14:43:34;;;;;;;19.50;12.40;;;;;;;10.90;89.04;98493.91;214643;1308;22498;-74
2022/10/22 14:48:36;;;;;;;19.00;11.60;;;;;;;10.87;89.16;98499.54;214798;1306;22491;-73
2022/10/22 14:53:38;;;;;;;22.70;14.00;;;;;;;10.84;89.69;98501.11;214711;1309;24070;-74
2022/10/22 14:58:40;;;;;;;24.60;13.90;;;;;;;10.78;89.89;98496.54;214753;1309;22490;-74
2022/10/22 15:03:42;;;;;;;29.10;14.50;;;;;;;10.73;90.46;98503.27;214475;1309;22639;-74
2022/10/22 15:08:44;;;;;;;24.80;13.20;;;;;;;10.69;90.67;98500.67;214816;1309;22532;-73
2022/10/22 15:13:46;;;;;;;41.70;25.00;;;;;;;10.65;91.12;98508.88;214632;1309;22478;-74
2022/10/22 15:18:48;;;;;;;23.80;14.60;;;;;;;10.67;91.13;98513.83;214726;1309;22476;-73
2022/10/22 15:23:50;;;;;;;24.50;14.30;;;;;;;10.64;90.96;98514.76;214720;1300;22495;-73
2022/10/22 15:28:52;;;;;;;24.10;13.50;;;;;;;10.59;91.12;98518.85;214702;1309;22480;-73
2022/10/22 15:33:54;;;;;;;20.30;12.50;;;;;;;10.57;91.69;98525.09;214677;1309;22475;-74
2022/10/22 15:39:07;;;;;;;19.30;12.00;;;;;;;10.54;91.63;98530.66;214541;1309;23323;-74
2022/10/22 15:44:18;;;;;;;20.70;11.90;;;;;;;10.54;91.77;98533.94;214904;1309;24297;-74
2022/10/22 15:49:22;;;;;;;20.10;12.30;;;;;;;10.55;91.97;98539.38;214576;1309;22933;-74
2022/10/22 15:54:27;;;;;;;49.70;28.20;;;;;;;10.53;92.21;98543.05;214894;1309;22974;-73
2022/10/22 15:59:29;;;;;;;30.40;17.60;;;;;;;10.56;92.68;98548.91;214555;1309;22495;-74
2022/10/22 16:04:31;;;;;;;23.50;15.00;;;;;;;10.56;92.42;98564.52;214729;1309;22484;-74
2022/10/22 16:09:33;;;;;;;24.50;15.80;;;;;;;10.55;92.66;98553.89;214600;1301;22543;-74
2022/10/22 16:14:35;;;;;;;22.70;13.10;;;;;;;10.52;92.78;98548.31;214614;1309;22631;-73
2022/10/22 16:19:37;;;;;;;26.50;15.70;;;;;;;10.49;92.93;98554.58;214530;1309;23910;-75
2022/10/22 16:24:39;;;;;;;21.30;14.20;;;;;;;10.45;93.22;98570.92;214549;1309;22603;-74
2022/10/22 16:29:41;;;;;;;23.00;13.60;;;;;;;10.42;93.51;98583.83;214689;1283;25251;-73
2022/10/22 16:34:43;;;;;;;27.80;15.70;;;;;;;10.40;93.83;98583.64;214668;1304;22539;-75
2022/10/22 16:39:45;;;;;;;25.70;16.20;;;;;;;10.38;94.21;98594.33;214701;1309;23057;-76
2022/10/22 16:44:47;;;;;;;28.10;14.60;;;;;;;10.36;94.83;98602.86;214742;1308;25273;-74
2022/10/22 16:49:49;;;;;;;26.70;15.90;;;;;;;10.36;95.14;98618.35;214828;1309;25111;-73
2022/10/22 16:54:51;;;;;;;25.00;15.40;;;;;;;10.35;95.50;98628.60;214543;1309;24074;-73
2022/10/22 16:59:53;;;;;;;28.30;16.00;;;;;;;10.34;95.76;98633.91;214576;1308;22526;-76
2022/10/22 17:04:55;;;;;;;28.70;15.90;;;;;;;10.34;95.91;98639.83;214640;1309;22513;-74
2022/10/22 17:09:56;;;;;;;27.00;16.20;;;;;;;10.33;95.98;98642.04;214742;1309;26343;-73
2022/10/22 17:14:58;;;;;;;25.70;16.00;;;;;;;10.33;95.99;98647.66;214492;1305;22612;-75
2022/10/22 17:20:00;;;;;;;26.60;17.40;;;;;;;10.33;96.34;98644.54;214730;1309;25337;-74
2022/10/22 17:25:20;;;;;;;26.50;17.30;;;;;;;10.30;96.43;98652.02;214577;1309;22753;-74
2022/10/22 17:30:24;;;;;;;24.50;16.90;;;;;;;10.28;96.61;98657.04;214563;1304;22812;-74
2022/10/22 17:35:28;;;;;;;27.50;17.10;;;;;;;10.26;96.87;98655.67;214708;1309;22565;-75
2022/10/22 17:40:29;;;;;;;32.90;19.80;;;;;;;10.24;96.87;98660.77;214525;1303;22653;-75
2022/10/22 17:45:31;;;;;;;29.90;17.50;;;;;;;10.25;96.97;98663.66;214491;1309;22483;-75
2022/10/22 17:50:33;;;;;;;29.40;18.40;;;;;;;10.27;96.95;98666.16;214511;1309;25377;-75
2022/10/22 17:55:35;;;;;;;28.20;16.90;;;;;;;10.30;97.15;98668.70;214819;1309;25394;-75
2022/10/22 18:00:37;;;;;;;26.00;16.10;;;;;;;10.31;96.99;98670.23;214635;1309;24286;-74
2022/10/22 18:05:39;;;;;;;26.70;17.20;;;;;;;10.32;97.14;98670.21;214609;1309;24266;-75
2022/10/22 18:10:41;;;;;;;22.10;15.60;;;;;;;10.33;97.24;98669.99;214611;1309;22607;-73
2022/10/22 18:15:43;;;;;;;25.00;14.90;;;;;;;10.35;97.38;98680.02;214546;1309;24357;-73
2022/10/22 18:20:52;;;;;;;25.50;14.60;;;;;;;10.37;97.30;98683.67;214532;1308;25333;-74
2022/10/22 18:25:53;;;;;;;22.60;14.20;;;;;;;10.39;97.39;98675.13;214579;1309;22489;-74
2022/10/22 18:30:55;;;;;;;23.40;14.20;;;;;;;10.38;98.02;98679.21;214608;1304;22615;-74
2022/10/22 18:36:03;;;;;;;25.20;14.80;;;;;;;10.36;98.63;98669.55;214716;1309;22659;-74
2022/10/22 18:41:07;;;;;;;23.60;14.80;;;;;;;10.35;98.33;98673.73;214546;1309;24352;-74
2022/10/22 18:46:09;;;;;;;21.70;13.80;;;;;;;10.32;98.47;98676.84;214689;1306;23914;-74
2022/10/22 18:51:10;;;;;;;23.60;14.40;;;;;;;10.28;98.04;98690.23;214666;1309;24343;-76
2022/10/22 18:56:12;;;;;;;18.70;12.90;;;;;;;10.27;98.33;98701.88;214585;1309;25128;-74
2022/10/22 19:01:18;;;;;;;24.20;14.50;;;;;;;10.29;98.58;98707.19;214568;1309;22963;-74
2022/10/22 19:06:28;;;;;;;23.10;13.70;;;;;;;10.32;98.72;98714.84;214748;1309;24311;-74
2022/10/22 19:11:34;;;;;;;21.40;13.30;;;;;;;10.36;98.84;98714.36;214588;1309;22951;-74
2022/10/22 19:16:37;;;;;;;20.80;12.10;;;;;;;10.41;98.97;98725.17;214715;1309;22528;-73
2022/10/22 19:21:39;;;;;;;18.10;11.80;;;;;;;10.43;99.22;98726.65;214733;1309;22642;-73
2022/10/22 19:26:41;;;;;;;19.40;14.10;;;;;;;10.39;99.28;98732.48;214733;1309;22491;-74
2022/10/22 19:31:43;;;;;;;19.90;11.90;;;;;;;10.37;99.38;98738.09;214486;1309;22479;-74
2022/10/22 19:36:45;;;;;;;19.30;12.10;;;;;;;10.39;99.30;98747.27;214707;1303;22485;-74
2022/10/22 19:41:47;;;;;;;23.00;15.20;;;;;;;10.41;99.41;98759.08;214646;1309;23632;-73
2022/10/22 19:46:49;;;;;;;21.90;14.20;;;;;;;10.45;99.31;98762.89;214545;1309;22582;-74
2022/10/22 19:51:51;;;;;;;21.10;13.10;;;;;;;10.51;99.30;98771.76;214818;1309;25407;-75
2022/10/22 19:56:52;;;;;;;19.70;12.20;;;;;;;10.55;99.34;98768.80;214706;1309;22465;-75
2022/10/22 20:01:54;;;;;;;24.60;14.60;;;;;;;10.60;99.19;98772.61;214828;1309;22627;-73
2022/10/22 20:06:56;;;;;;;18.50;12.40;;;;;;;10.64;99.16;98775.76;214772;1309;22524;-74
2022/10/22 20:11:59;;;;;;;19.30;12.70;;;;;;;10.68;99.40;98780.31;214694;1309;23198;-74
2022/10/22 20:17:01;;;;;;;23.30;13.80;;;;;;;10.71;99.55;98779.80;214626;1309;22978;-74
2022/10/22 20:22:02;;;;;;;23.50;14.50;;;;;;;10.72;99.70;98784.93;214674;1308;23109;-74
2022/10/22 20:27:04;;;;;;;21.90;13.60;;;;;;;10.73;99.67;98783.68;214576;1309;25220;-74
2022/10/22 20:32:06;;;;;;;21.70;14.30;;;;;;;10.74;99.71;98785.06;214723;1309;25253;-73
2022/10/22 20:37:09;;;;;;;20.50;13.30;;;;;;;10.74;99.87;98786.33;214670;1309;24259;-74
2022/10/22 20:42:11;;;;;;;24.00;14.20;;;;;;;10.75;99.61;98792.55;214486;1309;22551;-75
2022/10/22 20:47:13;;;;;;;23.20;14.60;;;;;;;10.78;99.68;98794.16;214629;1309;25093;-74
2022/10/22 20:52:15;;;;;;;20.30;12.70;;;;;;;10.82;99.66;98796.59;214716;1308;22542;-74
2022/10/22 20:57:17;;;;;;;22.80;13.70;;;;;;;10.83;99.68;98798.28;214561;1309;25357;-73
2022/10/22 21:02:19;;;;;;;21.70;13.40;;;;;;;10.84;99.57;98801.58;214787;1309;25315;-74
2022/10/22 21:07:21;;;;;;;23.20;14.30;;;;;;;10.86;99.51;98810.03;214653;1309;23231;-74
2022/10/22 21:12:25;;;;;;;20.10;12.60;;;;;;;10.89;99.64;98809.90;214526;1309;25440;-73
2022/10/22 21:17:27;;;;;;;18.60;12.30;;;;;;;10.92;99.51;98810.86;214647;1309;24329;-74
2022/10/22 21:22:29;;;;;;;19.80;12.70;;;;;;;10.94;99.70;98812.33;214606;1304;23855;-74
2022/10/22 21:27:31;;;;;;;20.30;12.80;;;;;;;10.96;99.80;98819.08;214812;1308;22487;-74
2022/10/22 21:32:33;;;;;;;20.50;12.90;;;;;;;10.98;99.65;98821.50;214668;1308;24245;-74
2022/10/22 21:37:34;;;;;;;21.00;13.30;;;;;;;11.00;99.59;98828.23;214551;1309;22609;-75
2022/10/22 21:42:36;;;;;;;16.40;11.20;;;;;;;10.98;99.80;98830.13;214690;1309;22953;-74
2022/10/22 21:47:45;;;;;;;19.40;11.90;;;;;;;10.91;99.54;98830.98;214493;1308;24526;-75
2022/10/22 21:52:46;;;;;;;20.70;12.10;;;;;;;10.80;99.53;98830.48;214638;1309;22719;-73
2022/10/22 21:57:48;;;;;;;20.00;11.80;;;;;;;10.65;99.42;98832.92;214769;1309;24277;-74
2022/10/22 22:02:50;;;;;;;21.40;13.10;;;;;;;10.51;99.56;98831.11;214675;1309;22623;-74
2022/10/22 22:07:52;;;;;;;18.50;11.20;;;;;;;10.38;99.76;98826.11;214724;1309;25104;-72
2022/10/22 22:12:53;;;;;;;17.40;10.10;;;;;;;10.27;99.96;98823.20;214520;1309;24447;-74
2022/10/22 22:17:55;;;;;;;19.50;11.70;;;;;;;10.20;99.94;98823.56;214561;1309;24334;-74
2022/10/22 22:22:57;;;;;;;17.30;11.40;;;;;;;10.19;100.00;98832.13;214493;1308;22461;-74
2022/10/22 22:27:59;;;;;;;19.40;11.80;;;;;;;10.21;100.00;98831.35;214702;1309;22467;-74
2022/10/22 22:33:01;;;;;;;20.20;11.10;;;;;;;10.26;100.00;98833.45;214757;1309;22495;-76
2022/10/22 22:38:02;;;;;;;19.10;12.30;;;;;;;10.33;100.00;98845.81;214477;1309;25402;-74
2022/10/22 22:43:04;;;;;;;19.20;11.80;;;;;;;10.40;100.00;98849.45;214553;1309;23065;-75
2022/10/22 22:48:06;;;;;;;17.50;11.20;;;;;;;10.48;100.00;98855.36;214586;1309;24253;-74
2022/10/22 22:53:08;;;;;;;21.10;13.50;;;;;;;10.55;100.00;98856.88;214487;1305;22597;-74
2022/10/22 22:58:10;;;;;;;21.90;12.70;;;;;;;10.59;100.00;98853.19;214731;1309;22483;-74
2022/10/22 23:03:11;;;;;;;24.00;13.30;;;;;;;10.60;100.00;98856.98;214535;1309;22598;-74
2022/10/22 23:08:13;;;;;;;18.60;11.70;;;;;;;10.58;100.00;98866.87;214748;1308;26483;-73
2022/10/22 23:13:18;;;;;;;21.30;13.10;;;;;;;10.54;100.00;98869.37;214776;1309;22599;-74
2022/10/22 23:18:19;;;;;;;17.80;11.60;;;;;;;10.53;100.00;98879.47;214559;1309;24533;-76
2022/10/22 23:23:21;;;;;;;19.10;12.00;;;;;;;10.54;100.00;98878.33;214600;1309;24325;-75
2022/10/22 23:28:23;;;;;;;21.50;13.20;;;;;;;10.58;100.00;98884.77;214645;1309;22678;-74